createdAt,value
2022-12-03T00:00:47.023Z,79.06
2022-12-03T00:03:17.982Z,79.17
2022-12-03T00:05:49.014Z,79.47
2022-12-03T00:08:19.706Z,79.43
2022-12-03T00:10:50.057Z,79.60
2022-12-03T00:13:20.406Z,80.04
2022-12-03T00:15:50.720Z,80.31
2022-12-03T00:18:21.032Z,80.67
2022-12-03T00:20:51.499Z,81.48
2022-12-03T00:23:21.111Z,81.15
2022-12-03T00:25:51.317Z,83.14
2022-12-03T00:28:21.663Z,84.06
2022-12-03T00:30:55.191Z,84.20
2022-12-03T00:33:27.041Z,84.17
2022-12-03T00:35:57.330Z,85.59
2022-12-03T00:38:27.781Z,86.29
2022-12-03T00:40:58.147Z,87.08
2022-12-03T00:43:28.563Z,88.05
2022-12-03T00:45:58.901Z,88.10
2022-12-03T00:48:29.551Z,88.59
2022-12-03T00:50:59.821Z,89.14
2022-12-03T00:53:29.974Z,89.33
2022-12-03T00:56:00.375Z,90.17
2022-12-03T00:58:30.563Z,89.55
2022-12-03T01:01:00.901Z,89.80
2022-12-03T01:03:31.185Z,90.12
2022-12-03T01:06:00.706Z,89.43
2022-12-03T01:08:30.593Z,90.16
2022-12-03T01:11:00.167Z,88.63
2022-12-03T01:13:30.191Z,91.01
2022-12-03T01:16:00.543Z,90.24
2022-12-03T01:18:30.863Z,89.97
2022-12-03T01:21:01.230Z,89.52
2022-12-03T01:23:31.522Z,89.03
2022-12-03T01:26:01.876Z,89.80
2022-12-03T01:28:32.774Z,88.86
2022-12-03T01:31:21.306Z,88.97
2022-12-03T01:33:51.546Z,89.81
2022-12-03T01:36:22.278Z,88.42
2022-12-03T01:38:52.528Z,89.45
2022-12-03T01:41:24.555Z,89.45
2022-12-03T01:43:56.800Z,89.75
2022-12-03T01:46:33.741Z,90.39
2022-12-03T01:49:04.176Z,90.31
2022-12-03T01:51:34.493Z,89.68
2022-12-03T01:54:06.949Z,90.04
2022-12-03T01:56:37.340Z,90.20
2022-12-03T01:59:07.388Z,89.06
2022-12-03T02:01:37.945Z,89.22
2022-12-03T02:04:10.237Z,89.58
2022-12-03T02:06:40.695Z,89.29
2022-12-03T02:09:15.265Z,88.80
2022-12-03T02:11:50.351Z,89.21
2022-12-03T02:14:40.339Z,89.27
2022-12-03T02:17:10.890Z,90.21
2022-12-03T02:19:41.436Z,89.42
2022-12-03T02:22:37.336Z,89.13
2022-12-03T02:25:12.462Z,89.23
2022-12-03T02:27:43.650Z,89.91
2022-12-03T02:30:15.673Z,89.49
2022-12-03T02:32:46.193Z,89.72
2022-12-03T02:35:22.971Z,89.57
2022-12-03T02:38:00.936Z,90.37
2022-12-03T02:40:34.458Z,90.91
2022-12-03T02:43:05.788Z,90.93
2022-12-03T02:45:40.393Z,90.79
2022-12-03T02:48:10.570Z,90.67
2022-12-03T02:51:07.986Z,91.05
2022-12-03T02:53:43.717Z,91.34
2022-12-03T02:56:16.794Z,91.38
2022-12-03T02:58:49.451Z,91.97
2022-12-03T03:01:20.038Z,91.83
2022-12-03T03:03:52.908Z,91.82
2022-12-03T03:06:23.612Z,92.17
2022-12-03T03:08:54.156Z,91.99
2022-12-03T03:11:24.778Z,91.19
2022-12-03T03:13:55.333Z,91.39
2022-12-03T03:16:25.697Z,91.57
2022-12-03T03:18:56.138Z,92.08
2022-12-03T03:21:26.414Z,91.84
2022-12-03T03:23:56.629Z,92.63
2022-12-03T03:26:26.981Z,91.93
2022-12-03T03:28:58.881Z,93.31
2022-12-03T03:31:29.261Z,93.17
2022-12-03T03:33:59.769Z,92.86
2022-12-03T03:36:30.129Z,93.29
2022-12-03T03:39:01.325Z,93.47
2022-12-03T03:41:32.051Z,93.77
2022-12-03T03:44:02.767Z,93.66
2022-12-03T03:46:34.635Z,93.91
2022-12-03T03:49:06.717Z,93.75
2022-12-03T03:51:38.513Z,94.49
2022-12-03T03:54:09.652Z,94.38
2022-12-03T03:56:40.208Z,94.54
2022-12-03T03:59:10.607Z,95.19
2022-12-03T04:01:41.026Z,95.02
2022-12-03T04:04:23.076Z,95.20
2022-12-03T04:06:53.472Z,94.54
2022-12-03T04:09:23.837Z,95.26
2022-12-03T04:12:12.543Z,96.06
2022-12-03T04:14:42.834Z,96.18
2022-12-03T04:17:13.117Z,96.47
2022-12-03T04:19:43.563Z,96.42
2022-12-03T04:22:31.998Z,96.46
2022-12-03T04:25:20.880Z,96.26
2022-12-03T04:28:09.281Z,96.29
2022-12-03T04:30:39.651Z,96.23
2022-12-03T04:33:28.175Z,96.29
2022-12-03T04:35:58.542Z,96.02
2022-12-03T04:38:28.861Z,95.87
2022-12-03T04:41:08.381Z,95.75
2022-12-03T04:44:01.221Z,96.14
2022-12-03T04:46:31.520Z,95.98
2022-12-03T04:49:01.797Z,95.24
2022-12-03T04:51:32.000Z,95.48
2022-12-03T04:54:02.400Z,95.48
2022-12-03T04:56:32.563Z,94.73
2022-12-03T04:59:02.874Z,95.17
2022-12-03T05:01:33.322Z,94.83
2022-12-03T05:04:03.638Z,95.03
2022-12-03T05:06:34.201Z,94.95
2022-12-03T05:09:05.352Z,95.00
2022-12-03T05:11:35.636Z,95.31
2022-12-03T05:14:06.183Z,95.27
2022-12-03T05:16:36.548Z,95.22
2022-12-03T05:19:07.887Z,95.02
2022-12-03T05:21:38.334Z,95.18
2022-12-03T05:24:08.614Z,94.57
2022-12-03T05:26:38.997Z,95.20
2022-12-03T05:29:09.391Z,95.34
2022-12-03T05:31:41.555Z,95.31
2022-12-03T05:34:11.746Z,95.41
2022-12-03T05:36:41.810Z,95.48
2022-12-03T05:39:11.781Z,95.61
2022-12-03T05:42:00.260Z,95.50
2022-12-03T05:44:30.559Z,95.32
2022-12-03T05:47:00.695Z,95.49
2022-12-03T05:49:30.960Z,95.34
2022-12-03T05:52:01.278Z,95.01
2022-12-03T05:54:31.435Z,96.19
2022-12-03T05:57:01.797Z,96.19
2022-12-03T05:59:32.137Z,97.10
2022-12-03T06:02:02.628Z,97.47
2022-12-03T06:04:32.720Z,97.72
2022-12-03T06:07:02.197Z,96.89
2022-12-03T06:09:32.137Z,97.64
2022-12-03T06:12:02.384Z,97.58
2022-12-03T06:14:33.582Z,97.45
2022-12-03T06:17:06.106Z,97.75
2022-12-03T06:19:36.789Z,98.28
2022-12-03T06:22:07.119Z,98.39
2022-12-03T06:24:37.462Z,98.76
2022-12-03T06:27:07.778Z,99.28
2022-12-03T06:29:38.063Z,99.15
2022-12-03T06:32:08.427Z,99.34
2022-12-03T06:34:38.912Z,99.26
2022-12-03T06:37:09.253Z,99.35
2022-12-03T06:39:38.816Z,98.74
2022-12-03T06:42:08.843Z,98.92
2022-12-03T06:44:39.621Z,98.69
2022-12-03T06:47:09.932Z,99.14
2022-12-03T06:49:40.355Z,99.48
2022-12-03T06:52:10.560Z,99.35
2022-12-03T06:54:41.236Z,99.31
2022-12-03T06:57:11.674Z,98.76
2022-12-03T06:59:42.273Z,98.60
2022-12-03T07:02:14.015Z,98.90
2022-12-03T07:04:46.389Z,98.45
2022-12-03T07:07:16.990Z,98.80
2022-12-03T07:09:47.348Z,98.92
2022-12-03T07:12:17.552Z,99.22
2022-12-03T07:14:47.966Z,99.22
2022-12-03T07:17:18.210Z,99.37
2022-12-03T07:19:48.584Z,99.22
2022-12-03T07:22:18.889Z,99.24
2022-12-03T07:24:49.953Z,99.14
2022-12-03T07:27:20.252Z,98.84
2022-12-03T07:29:50.631Z,99.37
2022-12-03T07:32:20.978Z,99.71
2022-12-03T07:34:51.677Z,99.39
2022-12-03T07:37:23.511Z,99.64
2022-12-03T07:39:53.930Z,99.59
2022-12-03T07:42:24.242Z,99.47
2022-12-03T07:44:54.953Z,99.56
2022-12-03T07:47:25.464Z,99.06
2022-12-03T07:49:55.067Z,98.36
2022-12-03T07:52:25.294Z,98.60
2022-12-03T07:54:55.917Z,98.20
2022-12-03T07:57:26.320Z,98.41
2022-12-03T07:59:56.601Z,98.40
2022-12-03T08:02:26.936Z,98.65
2022-12-03T08:04:57.191Z,98.66
2022-12-03T08:07:27.529Z,98.77
2022-12-03T08:09:57.933Z,99.11
2022-12-03T08:12:50.907Z,98.89
2022-12-03T08:15:27.013Z,98.84
2022-12-03T08:18:02.088Z,98.75
2022-12-03T08:20:36.799Z,98.53
2022-12-03T08:23:13.350Z,97.77
2022-12-03T08:25:44.896Z,98.08
2022-12-03T08:28:20.787Z,97.83
2022-12-03T08:31:05.186Z,97.50
2022-12-03T08:33:38.164Z,97.90
2022-12-03T08:36:21.471Z,98.33
2022-12-03T08:39:03.908Z,98.09
2022-12-03T08:41:52.719Z,98.34
2022-12-03T08:44:30.337Z,98.16
2022-12-03T08:47:19.302Z,97.72
2022-12-03T08:50:01.676Z,97.63
2022-12-03T08:52:36.362Z,96.69
2022-12-03T08:55:47.856Z,96.98
2022-12-03T08:58:45.564Z,97.55
2022-12-03T09:01:16.053Z,97.75
2022-12-03T09:03:55.841Z,97.78
2022-12-03T09:06:26.322Z,97.68
2022-12-03T09:08:56.661Z,97.86
2022-12-03T09:11:26.990Z,97.83
2022-12-03T09:13:57.389Z,98.10
2022-12-03T09:16:27.556Z,96.85
2022-12-03T09:18:57.962Z,97.06
2022-12-03T09:21:29.064Z,97.25
2022-12-03T09:24:00.020Z,97.74
2022-12-03T09:26:31.385Z,96.49
2022-12-03T09:29:01.709Z,96.30
2022-12-03T09:31:32.107Z,96.42
2022-12-03T09:34:04.781Z,96.63
2022-12-03T09:36:35.532Z,96.94
2022-12-03T09:39:06.498Z,96.35
2022-12-03T09:41:37.135Z,96.62
2022-12-03T09:44:10.891Z,96.44
2022-12-03T09:46:46.813Z,96.18
2022-12-03T09:49:19.393Z,96.68
2022-12-03T09:51:49.799Z,96.61
2022-12-03T09:54:26.019Z,96.47
2022-12-03T09:56:58.339Z,96.69
2022-12-03T09:59:36.415Z,96.39
2022-12-03T10:02:33.023Z,95.61
2022-12-03T10:05:03.494Z,96.10
2022-12-03T10:07:33.917Z,96.87
2022-12-03T10:10:04.546Z,97.06
2022-12-03T10:12:34.897Z,97.22
2022-12-03T10:15:05.510Z,97.44
2022-12-03T10:17:35.816Z,97.88
2022-12-03T10:20:06.665Z,98.21
2022-12-03T10:22:38.755Z,98.15
2022-12-03T10:25:18.375Z,97.95
2022-12-03T10:28:03.186Z,97.06
2022-12-03T10:30:34.214Z,97.23
2022-12-03T10:33:19.269Z,96.82
2022-12-03T10:35:49.943Z,95.98
2022-12-03T10:38:21.369Z,96.38
2022-12-03T10:40:51.970Z,96.38
2022-12-03T10:43:22.242Z,95.24
2022-12-03T10:46:04.857Z,95.34
2022-12-03T10:48:35.274Z,94.25
2022-12-03T10:51:07.260Z,93.91
2022-12-03T10:53:40.248Z,94.21
2022-12-03T10:56:16.696Z,94.57
2022-12-03T10:59:02.449Z,93.87
2022-12-03T11:01:33.868Z,94.20
2022-12-03T11:04:06.552Z,94.45
2022-12-03T11:06:36.951Z,93.68
2022-12-03T11:09:18.746Z,93.61
2022-12-03T11:11:49.782Z,93.69
2022-12-03T11:15:06.379Z,92.13
2022-12-03T11:17:45.389Z,92.48
2022-12-03T11:20:27.605Z,92.24
2022-12-03T11:22:59.293Z,92.95
2022-12-03T11:25:29.604Z,92.32
2022-12-03T11:28:15.221Z,91.69
2022-12-03T11:30:57.770Z,91.51
2022-12-03T11:33:40.776Z,91.42
2022-12-03T11:36:14.300Z,90.77
2022-12-03T11:38:55.686Z,89.62
2022-12-03T11:41:30.752Z,88.22
2022-12-03T11:44:25.802Z,88.64
2022-12-03T11:46:57.088Z,88.71
2022-12-03T11:49:36.079Z,88.77
2022-12-03T11:52:25.149Z,89.11
2022-12-03T11:55:06.666Z,88.72
2022-12-03T11:57:41.675Z,87.20
2022-12-03T12:00:20.981Z,87.63
2022-12-03T12:02:53.185Z,87.86
2022-12-03T12:05:31.861Z,87.96
2022-12-03T12:08:04.973Z,87.68
2022-12-03T12:10:51.341Z,86.31
2022-12-03T12:13:55.683Z,86.04
2022-12-03T12:16:53.487Z,85.48
2022-12-03T12:19:45.101Z,85.04
2022-12-03T12:22:25.442Z,85.01
2022-12-03T12:25:04.386Z,84.95
2022-12-03T12:27:39.238Z,84.78
2022-12-03T12:30:12.352Z,84.08
2022-12-03T12:32:53.883Z,82.66
2022-12-03T12:35:26.513Z,82.82
2022-12-03T12:38:02.616Z,81.27
2022-12-03T12:40:35.303Z,81.62
2022-12-03T12:43:28.821Z,83.21
2022-12-03T12:46:18.570Z,79.89
2022-12-03T12:48:57.955Z,80.56
2022-12-03T12:51:30.136Z,80.34
2022-12-03T12:54:00.466Z,80.98
2022-12-03T12:56:33.145Z,79.97
2022-12-03T12:59:19.379Z,80.06
2022-12-03T13:01:52.176Z,78.89
2022-12-03T13:04:25.024Z,80.55
2022-12-03T13:06:56.402Z,80.43
2022-12-03T13:09:27.747Z,81.10
2022-12-03T13:12:05.173Z,80.72
2022-12-03T13:15:30.674Z,81.64
2022-12-03T13:19:14.161Z,81.72
2022-12-03T13:22:04.555Z,79.96
2022-12-03T13:24:44.667Z,78.34
2022-12-03T13:27:27.199Z,78.74
2022-12-03T13:29:57.507Z,77.13
2022-12-03T13:32:39.165Z,79.66
2022-12-03T13:35:31.850Z,77.27
2022-12-03T13:38:02.501Z,77.56
2022-12-03T13:40:37.912Z,76.95
2022-12-03T13:43:20.392Z,78.17
2022-12-03T13:45:52.719Z,79.63
2022-12-03T13:48:36.411Z,78.96
2022-12-03T13:51:29.209Z,79.42
2022-12-03T13:54:00.957Z,80.86
2022-12-03T13:56:33.888Z,80.20
2022-12-03T13:59:05.664Z,80.04
2022-12-03T14:01:37.413Z,79.86
2022-12-03T14:04:08.111Z,78.88
2022-12-03T14:06:38.451Z,78.30
2022-12-03T14:09:08.820Z,78.68
2022-12-03T14:11:57.292Z,76.90
2022-12-03T14:14:28.405Z,77.76
2022-12-03T14:17:01.623Z,76.51
2022-12-03T14:19:33.518Z,75.12
2022-12-03T14:22:10.991Z,75.86
2022-12-03T14:24:41.472Z,74.88
2022-12-03T14:27:11.724Z,75.91
2022-12-03T14:29:45.176Z,76.70
2022-12-03T14:32:42.796Z,76.53
2022-12-03T14:35:22.350Z,75.12
2022-12-03T14:37:52.501Z,75.44
2022-12-03T14:40:34.106Z,74.97
2022-12-03T14:43:04.664Z,76.19
2022-12-03T14:45:40.104Z,76.89
2022-12-03T14:48:11.625Z,75.96
2022-12-03T14:50:42.044Z,76.27
2022-12-03T14:53:33.607Z,76.42
2022-12-03T14:56:07.132Z,75.71
2022-12-03T14:58:40.867Z,76.02
2022-12-03T15:01:11.414Z,76.03
2022-12-03T15:03:41.682Z,74.20
2022-12-03T15:06:19.375Z,74.70
2022-12-03T15:08:49.620Z,74.11
2022-12-03T15:14:22.270Z,73.60
2022-12-03T15:17:15.105Z,74.04
2022-12-03T15:19:48.287Z,73.21
2022-12-03T15:22:18.615Z,73.06
2022-12-03T15:24:50.153Z,73.11
2022-12-03T15:27:21.708Z,73.14
2022-12-03T15:29:55.513Z,73.03
2022-12-03T15:32:39.455Z,74.01
2022-12-03T15:35:23.316Z,74.79
2022-12-03T15:37:53.704Z,73.89
2022-12-03T15:40:24.242Z,72.31
2022-12-03T15:42:54.739Z,72.16
2022-12-03T15:45:25.103Z,71.87
2022-12-03T15:47:55.478Z,71.00
2022-12-03T15:50:25.649Z,68.42
2022-12-03T15:52:55.957Z,69.62
2022-12-03T15:55:26.502Z,70.40
2022-12-03T15:57:56.947Z,71.02
2022-12-03T16:00:27.393Z,71.17
2022-12-03T16:02:57.698Z,70.78
2022-12-03T16:05:31.063Z,69.94
2022-12-03T16:08:01.777Z,71.40
2022-12-03T16:13:34.725Z,72.71
2022-12-03T16:16:18.911Z,71.29
2022-12-03T16:18:59.588Z,69.71
2022-12-03T16:21:49.584Z,69.34
2022-12-03T16:24:21.352Z,69.80
2022-12-03T16:26:51.613Z,70.78
2022-12-03T16:29:37.822Z,69.69
2022-12-03T16:32:18.301Z,70.41
2022-12-03T16:35:12.176Z,70.56
2022-12-03T16:38:07.201Z,70.68
2022-12-03T16:40:42.601Z,68.56
2022-12-03T16:43:35.619Z,69.88
2022-12-03T16:46:27.187Z,71.31
2022-12-03T16:49:02.095Z,73.12
2022-12-03T16:51:32.440Z,71.59
2022-12-03T16:54:02.826Z,70.30
2022-12-03T16:56:33.367Z,68.73
2022-12-03T16:59:04.163Z,68.18
2022-12-03T17:01:34.544Z,67.30
2022-12-03T17:04:04.935Z,66.94
2022-12-03T17:06:35.231Z,66.05
2022-12-03T17:09:05.622Z,65.67
2022-12-03T17:11:36.250Z,66.14
2022-12-03T17:14:06.548Z,67.37
2022-12-03T17:16:36.912Z,69.05
2022-12-03T17:19:07.263Z,70.19
2022-12-03T17:21:37.394Z,70.96
2022-12-03T17:24:08.018Z,70.91
2022-12-03T17:26:38.362Z,71.39
2022-12-03T17:29:08.649Z,71.99
2022-12-03T17:31:42.243Z,71.07
2022-12-03T17:34:12.984Z,70.76
2022-12-03T17:36:43.322Z,72.89
2022-12-03T17:39:13.712Z,73.02
2022-12-03T17:41:44.023Z,72.45
2022-12-03T17:44:19.452Z,70.96
2022-12-03T17:46:51.417Z,70.14
2022-12-03T17:49:23.766Z,70.23
2022-12-03T17:51:59.465Z,69.82
2022-12-03T17:54:49.020Z,71.19
2022-12-03T17:57:20.113Z,70.65
2022-12-03T17:59:50.405Z,70.21
2022-12-03T18:02:20.726Z,71.56
2022-12-03T18:04:51.065Z,70.51
2022-12-03T18:07:21.459Z,71.41
2022-12-03T18:09:51.831Z,69.08
2022-12-03T18:12:23.578Z,70.73
2022-12-03T18:14:53.918Z,71.93
2022-12-03T18:17:24.255Z,72.38
2022-12-03T18:19:54.816Z,72.39
2022-12-03T18:22:25.297Z,73.35
2022-12-03T18:24:56.378Z,73.71
2022-12-03T18:27:26.990Z,74.21
2022-12-03T18:29:57.531Z,74.99
2022-12-03T18:32:29.740Z,74.74
2022-12-03T18:35:00.658Z,75.17
2022-12-03T18:37:31.838Z,74.63
2022-12-03T18:40:27.266Z,75.21
2022-12-03T18:42:58.947Z,74.94
2022-12-03T18:45:29.300Z,74.21
2022-12-03T18:47:59.721Z,73.36
2022-12-03T18:50:30.034Z,74.39
2022-12-03T18:53:00.405Z,75.13
2022-12-03T18:55:35.259Z,75.21
2022-12-03T18:58:06.053Z,74.59
2022-12-03T19:00:37.085Z,74.17
2022-12-03T19:03:08.728Z,73.74
2022-12-03T19:05:39.084Z,73.10
2022-12-03T19:08:15.615Z,73.92
2022-12-03T19:10:45.974Z,73.78
2022-12-03T19:13:16.604Z,73.30
2022-12-03T19:15:47.611Z,73.28
2022-12-03T19:18:18.034Z,73.21
2022-12-03T19:20:48.206Z,73.62
2022-12-03T19:23:19.496Z,73.57
2022-12-03T19:26:03.308Z,73.92
2022-12-03T19:28:33.796Z,74.47
2022-12-03T19:31:10.164Z,74.16
2022-12-03T19:33:41.039Z,73.97
2022-12-03T19:36:30.831Z,73.50
2022-12-03T19:39:02.611Z,73.20
2022-12-03T19:41:32.980Z,73.44
2022-12-03T19:44:07.827Z,73.67
2022-12-03T19:46:41.250Z,73.72
2022-12-03T19:49:12.438Z,73.94
2022-12-03T19:51:42.686Z,73.81
2022-12-03T19:54:13.990Z,73.87
2022-12-03T19:56:44.440Z,74.11
2022-12-03T19:59:16.968Z,74.39
2022-12-03T20:01:47.410Z,74.30
2022-12-03T20:04:17.908Z,74.63
2022-12-03T20:06:48.783Z,74.97
2022-12-03T20:09:19.111Z,75.30
2022-12-03T20:11:52.691Z,74.49
2022-12-03T20:14:23.603Z,74.71
2022-12-03T20:16:53.902Z,75.44
2022-12-03T20:19:24.277Z,76.17
2022-12-03T20:21:59.068Z,76.01
2022-12-03T20:24:32.538Z,76.48
2022-12-03T20:27:02.592Z,76.13
2022-12-03T20:29:32.937Z,77.55
2022-12-03T20:32:03.352Z,79.57
2022-12-03T20:34:35.453Z,82.57
2022-12-03T20:37:05.777Z,83.65
2022-12-03T20:39:36.007Z,85.73
2022-12-03T20:42:06.276Z,86.25
2022-12-03T20:44:36.707Z,86.81
2022-12-03T20:47:07.673Z,86.53
2022-12-03T20:49:40.372Z,87.18
2022-12-03T20:52:10.794Z,88.06
2022-12-03T20:54:40.908Z,88.10
2022-12-03T20:57:11.211Z,87.83
2022-12-03T20:59:41.577Z,86.82
2022-12-03T21:02:12.885Z,86.72
2022-12-03T21:04:43.549Z,86.77
2022-12-03T21:07:13.990Z,87.01
2022-12-03T21:09:44.313Z,87.15
2022-12-03T21:12:14.697Z,87.96
2022-12-03T21:14:45.305Z,87.25
2022-12-03T21:17:15.776Z,87.21
2022-12-03T21:19:46.165Z,86.91
2022-12-03T21:22:16.601Z,87.27
2022-12-03T21:24:47.018Z,87.85
2022-12-03T21:27:21.559Z,86.90
2022-12-03T21:29:52.826Z,86.13
2022-12-03T21:32:23.396Z,86.17
2022-12-03T21:34:53.751Z,86.65
2022-12-03T21:37:24.304Z,85.94
2022-12-03T21:39:55.016Z,86.09
2022-12-03T21:42:36.631Z,86.00
2022-12-03T21:45:08.269Z,85.45
2022-12-03T21:47:39.118Z,84.74
2022-12-03T21:50:12.840Z,84.61
2022-12-03T21:52:43.414Z,84.56
2022-12-03T21:55:14.005Z,84.65
2022-12-03T21:57:44.372Z,84.35
2022-12-03T22:00:15.255Z,84.62
2022-12-03T22:02:45.814Z,84.55
2022-12-03T22:05:16.216Z,84.76
2022-12-03T22:07:46.619Z,84.94
2022-12-03T22:10:17.004Z,85.29
2022-12-03T22:12:47.283Z,85.37
2022-12-03T22:15:19.336Z,85.48
2022-12-03T22:17:50.099Z,85.59
2022-12-03T22:20:20.921Z,85.64
2022-12-03T22:22:51.500Z,86.68
2022-12-03T22:25:21.842Z,87.74
2022-12-03T22:27:52.134Z,88.08
2022-12-03T22:30:22.474Z,88.29
2022-12-03T22:32:52.725Z,88.37
2022-12-03T22:35:23.112Z,89.01
2022-12-03T22:37:53.422Z,88.67
2022-12-03T22:40:23.809Z,86.29
2022-12-03T22:42:54.144Z,85.75
2022-12-03T22:45:24.226Z,85.51
2022-12-03T22:47:54.414Z,84.76
2022-12-03T22:50:24.798Z,84.64
2022-12-03T22:52:55.112Z,84.86
2022-12-03T22:55:25.550Z,84.59
2022-12-03T22:57:55.806Z,84.53
2022-12-03T23:00:35.499Z,84.76
2022-12-03T23:03:24.955Z,85.18
2022-12-03T23:05:55.254Z,86.15
2022-12-03T23:08:25.589Z,86.57
2022-12-03T23:10:55.943Z,87.04
2022-12-03T23:13:26.551Z,87.07
2022-12-03T23:15:57.010Z,87.29
2022-12-03T23:18:27.433Z,87.87
2022-12-03T23:20:58.803Z,88.31
2022-12-03T23:23:29.799Z,88.72
2022-12-03T23:26:09.067Z,88.72
2022-12-03T23:28:42.377Z,88.96
2022-12-03T23:31:20.613Z,89.01
2022-12-03T23:33:52.633Z,89.45
2022-12-03T23:36:24.145Z,89.52
2022-12-03T23:38:54.500Z,89.70
2022-12-03T23:41:26.409Z,90.02
2022-12-03T23:43:57.602Z,89.92
2022-12-03T23:46:29.058Z,90.17
2022-12-03T23:49:00.848Z,90.25
2022-12-03T23:51:31.150Z,90.07
2022-12-03T23:54:01.467Z,89.61
2022-12-03T23:56:32.522Z,89.91
2022-12-03T23:59:03.022Z,89.30
